Baker, OR

9:59 PM PDT on August 20, 2014 (GMT -0700)
Baker City Municipal | Change Station
CLOSE
Current Station
Airport
Location: Baker,
Elevation: 3373 ft
Nearby Weather Stations

Elev 3373 ft 44.84 °N, 117.81 °W | Updated 6 minutes ago

Clear
Clear
59 °F
Feels Like 59 °F
N
4
Wind Variable Wind from South

Today
High -- | Low -- °F
--% Chance of Precip.
Yesterday
High -- | Low -- °F
Precip. -- in
5:59 AM 7:48 PM
Waning Crescent, 17% visible
Pressure 29.88 in
Visibility 10.0 miles
Clouds Clear
Dew Point 31 °F
Humidity 35%
Rainfall 0.00 in
Snow Depth 0 in , 0 in
UV 0 out of 12
Pollen 6.20 out of 12
Air Quality Not available.
Flu Activity Not available.
METAR KBKE 210453Z AUTO 19003KT 10SM CLR 15/M01 A2994 RMK AO2 SLP119 T01501006 TSNO

More Conditions Fewer Conditions

Pressure 29.88 in
Visibility 10.0 miles
Clouds Clear
Dew Point 31 °F
Humidity 35%
Rainfall 0.00 in
Snow Depth 0 in , 0 in
UV 0 out of 12
Pollen 6.20 out of 12
Air Quality Not available.
Flu Activity Not available.
METAR KBKE 210453Z AUTO 19003KT 10SM CLR 15/M01 A2994 RMK AO2 SLP119 T01501006 TSNO

More Conditions Fewer Conditions

10-Day Weather Forecast

Almanac

Astronomy

Aug. 20, 2014 Rise Set
Actual Time 5:59 AM PDT 7:48 PM PDT
Civil Twilight 5:28 AM PDT 8:20 PM PDT
Nautical Twilight 4:50 AM PDT 8:58 PM PDT
Astronomical Twilight 4:08 AM PDT 9:39 PM PDT
Moon 1:38 AM PDT (8/20) 4:41 PM PDT (8/20)
Length of Visible Light 14h 51m
Length of Day
13h 49m
Tomorrow will be 2m 52s shorter.
Waning Crescent, 17% of the Moon is Illuminated
Aug 21
Waning Crescent
Aug 25
New
Sep 2
First Quarter
Sep 8
Full
Sep 15
Last Quarter

Yesterday's Extremes

State Highs State Lows

Community

WunderPhotos

Upload Photos

1,745,856 photos uploaded!

Nearby

Snow Depth

Station Depth Elevation
Eilertson Meadows 0 in 5400 ft
Bourne 0 in 5800 ft
Wolf Creek 2 in 5700 ft
Tipton 0 in 5150 ft
Mt. Howard 0 in 7910 ft

Earthquake Activity

City Distance Mag. Time & Date
No recent earthquake activity has been reported nearby.
Minimum magnitude displayed is 2.5.

Coastal Water Temperatures

Place Temperature
No Stations Reporting

Nearby Weather Stations